Terminal Aerodrome Forecast
Issued by NWS

Home | Current Version | Previous Version | Text Only | Print | Product List | Glossary On
Versions: 1 2 3 4 5 6 7 8 9 10 11 12 13 14 15 16 17
000
FTUS44 KLUB 250204 AAA
TAFCDS
TAF AMD
KCDS 250204Z 2502/2524 01020G30KT P6SM SCT150 BKN250
     FM250700 01018G28KT P6SM -SHRA OVC020
     FM251200 01015KT P6SM OVC040=

USA.gov is the U.S. government's official web portal to all federal, state and local government web resources and services.